createdAt,value
2018-07-16T00:04:34.323Z,96.80
2018-07-16T00:14:35.638Z,96.40
2018-07-16T00:24:36.845Z,97.40
2018-07-16T00:34:38.101Z,97.80
2018-07-16T00:44:39.355Z,98.50
2018-07-16T00:54:40.613Z,99.30
2018-07-16T01:04:42.022Z,99.60
2018-07-16T01:14:43.254Z,99.90
2018-07-16T01:24:45.701Z,99.90
2018-07-16T01:34:46.992Z,99.90
2018-07-16T01:44:48.229Z,99.90
2018-07-16T01:54:49.510Z,99.90
2018-07-16T02:04:50.762Z,99.90
2018-07-16T02:14:52.766Z,99.90
2018-07-16T02:35:01.838Z,99.90
2018-07-16T02:45:03.069Z,99.90
2018-07-16T02:55:04.331Z,99.90
2018-07-16T03:05:05.557Z,99.90
2018-07-16T03:15:06.832Z,99.90
2018-07-16T03:25:08.583Z,99.90
2018-07-16T03:35:09.841Z,99.90
2018-07-16T03:45:11.110Z,99.90
2018-07-16T03:55:12.540Z,99.90
2018-07-16T04:05:13.796Z,99.90
2018-07-16T04:15:15.052Z,99.90
2018-07-16T04:25:16.498Z,98.90
2018-07-16T04:35:17.912Z,96.60
2018-07-16T04:45:19.190Z,95.10
2018-07-16T04:55:20.455Z,93.20
2018-07-16T05:05:22.750Z,92.20
2018-07-16T05:15:24.182Z,92.60
2018-07-16T05:25:25.452Z,91.80
2018-07-16T05:35:26.718Z,90.70
2018-07-16T05:45:27.993Z,89.00
2018-07-16T05:55:29.258Z,84.50
2018-07-16T06:05:30.540Z,82.30
2018-07-16T06:15:31.802Z,83.30
2018-07-16T06:25:33.051Z,80.00
2018-07-16T06:35:35.106Z,73.50
2018-07-16T06:45:36.374Z,73.40
2018-07-16T06:55:38.411Z,67.60
2018-07-16T07:05:39.707Z,67.60
2018-07-16T07:15:41.266Z,65.90
2018-07-16T07:25:43.297Z,60.60
2018-07-16T07:35:44.792Z,60.50
2018-07-16T07:45:45.988Z,56.30
2018-07-16T07:55:48.163Z,46.60
2018-07-16T08:05:49.294Z,46.50
2018-07-16T08:15:51.343Z,30.50
2018-07-16T08:25:52.643Z,30.50
2018-07-16T08:35:53.926Z,29.40
2018-07-16T08:45:55.215Z,26.60
2018-07-16T08:55:56.474Z,27.50
2018-07-16T09:05:57.731Z,31.30
2018-07-16T09:15:58.999Z,32.30
2018-07-16T09:26:00.274Z,37.40
2018-07-16T09:36:01.703Z,29.40
2018-07-16T09:46:02.980Z,26.70
2018-07-16T09:56:05.178Z,39.20
2018-07-16T10:06:06.594Z,39.00
2018-07-16T10:16:08.639Z,35.90
2018-07-16T10:26:09.927Z,35.80
2018-07-16T10:36:11.210Z,38.50
2018-07-16T10:46:12.476Z,41.50
2018-07-16T10:56:13.738Z,43.80
2018-07-16T11:06:15.016Z,43.40
2018-07-16T11:16:16.269Z,42.40
2018-07-16T11:26:17.551Z,41.60
2018-07-16T11:36:18.806Z,42.80
2018-07-16T11:46:20.084Z,44.40
2018-07-16T11:56:21.366Z,42.90
2018-07-16T12:06:22.674Z,45.40
2018-07-16T12:16:23.955Z,44.40
2018-07-16T12:26:25.312Z,42.50
2018-07-16T12:36:26.560Z,42.20
2018-07-16T12:46:27.825Z,41.30
2018-07-16T12:56:29.862Z,45.00
2018-07-16T13:06:31.314Z,45.00
2018-07-16T13:16:32.587Z,45.00
2018-07-16T13:26:34.029Z,43.40
2018-07-16T13:36:36.075Z,45.00
2018-07-16T13:46:37.545Z,45.00
2018-07-16T13:56:39.605Z,47.80
2018-07-16T14:06:40.882Z,47.80
2018-07-16T14:16:42.302Z,45.00
2018-07-16T14:26:43.578Z,50.00
2018-07-16T14:36:44.862Z,53.60
2018-07-16T14:46:47.055Z,62.40
2018-07-16T14:56:48.448Z,62.20
2018-07-16T15:06:49.722Z,64.90
2018-07-16T15:16:51.790Z,68.20
2018-07-16T15:26:53.030Z,68.10
2018-07-16T15:36:54.278Z,67.70
2018-07-16T15:46:55.533Z,70.40
2018-07-16T15:56:56.783Z,72.30
2018-07-16T16:06:58.034Z,72.90
2018-07-16T16:16:59.418Z,73.10
2018-07-16T16:27:00.671Z,71.10
2018-07-16T16:37:02.142Z,71.20
2018-07-16T16:47:04.155Z,69.70
2018-07-16T16:57:06.151Z,72.20
2018-07-16T17:07:07.396Z,72.10
2018-07-16T17:17:08.769Z,72.00
2018-07-16T17:27:10.030Z,71.80
2018-07-16T17:37:11.374Z,72.00
2018-07-16T17:47:12.645Z,73.00
2018-07-16T17:57:14.659Z,74.30
2018-07-16T18:07:15.910Z,74.20
2018-07-16T18:17:18.167Z,74.70
2018-07-16T18:27:19.409Z,76.30
2018-07-16T18:37:20.662Z,76.60
2018-07-16T18:47:22.663Z,77.40
2018-07-16T18:57:23.894Z,76.80
2018-07-16T19:07:25.134Z,77.40
2018-07-16T19:17:26.384Z,79.90
2018-07-16T19:27:27.659Z,81.50
2018-07-16T19:37:29.739Z,84.40
2018-07-16T19:47:30.999Z,84.30
2018-07-16T19:57:32.253Z,88.40
2018-07-16T20:07:33.646Z,89.60
2018-07-16T20:17:34.896Z,90.70
2018-07-16T20:27:39.662Z,91.70
2018-07-16T20:37:40.906Z,93.30
2018-07-16T20:47:42.206Z,94.20
2018-07-16T20:57:43.459Z,94.20
2018-07-16T21:07:44.694Z,94.10
2018-07-16T21:17:46.113Z,93.20
2018-07-16T21:27:48.119Z,94.10
2018-07-16T21:37:49.354Z,94.10
